createdAt,value
2018-05-24T00:01:44.859Z,95.00
2018-05-24T00:04:11.175Z,95.00
2018-05-24T00:06:37.410Z,95.00
2018-05-24T00:09:04.448Z,95.20
2018-05-24T00:11:31.089Z,95.00
2018-05-24T00:13:58.089Z,95.30
2018-05-24T00:16:24.366Z,95.10
2018-05-24T00:18:50.633Z,95.40
2018-05-24T00:21:17.633Z,95.30
2018-05-24T00:23:43.887Z,95.30
2018-05-24T00:26:10.151Z,95.50
2018-05-24T00:28:36.447Z,95.20
2018-05-24T00:31:02.716Z,95.10
2018-05-24T00:33:29.732Z,95.40
2018-05-24T00:35:55.962Z,95.60
2018-05-24T00:38:22.237Z,95.40
2018-05-24T00:40:48.487Z,95.20
2018-05-24T00:43:15.507Z,95.40
2018-05-24T00:45:41.725Z,95.20
2018-05-24T00:48:08.012Z,95.00
2018-05-24T00:50:34.978Z,95.20
2018-05-24T00:53:01.977Z,95.10
2018-05-24T00:55:41.286Z,95.10
2018-05-24T00:58:07.551Z,95.30
2018-05-24T01:00:33.812Z,95.00
2018-05-24T01:03:00.088Z,94.90
2018-05-24T01:05:26.348Z,95.10
2018-05-24T01:07:52.614Z,94.70
2018-05-24T01:10:18.842Z,94.60
2018-05-24T01:12:45.111Z,94.90
2018-05-24T01:15:12.172Z,95.40
2018-05-24T01:17:38.373Z,95.10
2018-05-24T01:20:04.731Z,95.30
2018-05-24T01:22:31.708Z,95.70
2018-05-24T01:24:57.979Z,95.40
2018-05-24T01:27:24.207Z,95.40
2018-05-24T01:29:50.464Z,95.00
2018-05-24T01:32:16.716Z,95.00
2018-05-24T01:34:42.950Z,95.40
2018-05-24T01:37:21.331Z,95.40
2018-05-24T01:39:47.569Z,95.80
2018-05-24T01:42:13.781Z,96.10
2018-05-24T01:44:40.077Z,95.10
2018-05-24T01:47:07.069Z,95.50
2018-05-24T01:49:33.304Z,95.70
2018-05-24T01:51:59.533Z,95.60
2018-05-24T01:54:25.764Z,95.20
2018-05-24T01:56:52.093Z,95.50
2018-05-24T01:59:18.334Z,95.30
2018-05-24T02:01:44.593Z,95.50
2018-05-24T02:04:10.827Z,95.80
2018-05-24T02:06:37.092Z,95.90
2018-05-24T02:09:04.293Z,95.40
2018-05-24T02:11:30.549Z,95.60
2018-05-24T02:13:56.805Z,95.60
2018-05-24T02:16:23.103Z,95.60
2018-05-24T02:18:49.646Z,95.50
2018-05-24T02:21:15.922Z,95.50
2018-05-24T02:23:42.152Z,95.50
2018-05-24T02:26:08.418Z,95.70
2018-05-24T02:28:34.656Z,96.00
2018-05-24T02:31:00.893Z,95.80
2018-05-24T02:33:27.147Z,96.10
2018-05-24T02:35:54.233Z,95.90
2018-05-24T02:38:20.375Z,95.50
2018-05-24T02:40:46.629Z,95.30
2018-05-24T02:43:12.880Z,95.40
2018-05-24T02:45:39.105Z,95.90
2018-05-24T02:48:05.383Z,95.60
2018-05-24T02:50:32.394Z,95.80
2018-05-24T02:52:59.003Z,95.70
2018-05-24T02:55:25.260Z,95.50
2018-05-24T02:57:51.813Z,95.10
2018-05-24T03:00:18.042Z,95.30
2018-05-24T03:02:44.303Z,95.20
2018-05-24T03:05:11.509Z,95.80
2018-05-24T03:07:38.538Z,95.40
2018-05-24T03:10:05.506Z,95.60
2018-05-24T03:12:31.744Z,95.60
2018-05-24T03:14:58.020Z,95.70
2018-05-24T03:17:25.037Z,96.20
2018-05-24T03:19:51.275Z,96.20
2018-05-24T03:22:17.517Z,95.50
2018-05-24T03:24:43.813Z,95.00
2018-05-24T03:27:10.773Z,95.50
2018-05-24T03:29:37.757Z,95.70
2018-05-24T03:32:03.967Z,95.40
2018-05-24T03:34:30.944Z,96.00
2018-05-24T03:36:57.158Z,95.10
2018-05-24T03:39:23.428Z,95.80
2018-05-24T03:41:49.682Z,95.50
2018-05-24T03:44:15.924Z,95.00
2018-05-24T03:46:42.177Z,95.40
2018-05-24T03:49:09.163Z,95.80
2018-05-24T03:51:35.414Z,95.70
2018-05-24T03:54:02.425Z,96.40
2018-05-24T03:56:29.378Z,96.50
2018-05-24T03:59:08.185Z,96.70
2018-05-24T04:01:46.635Z,96.40
2018-05-24T04:04:25.075Z,96.70
2018-05-24T04:06:51.325Z,96.60
2018-05-24T04:09:17.540Z,96.50
2018-05-24T04:11:43.823Z,96.70
2018-05-24T04:14:10.048Z,96.60
2018-05-24T04:16:36.324Z,96.80
2018-05-24T04:19:02.559Z,95.00
2018-05-24T04:21:29.579Z,94.60
2018-05-24T04:23:55.834Z,94.40
2018-05-24T04:26:22.781Z,94.80
2018-05-24T04:28:49.818Z,95.00
2018-05-24T04:31:16.054Z,94.70
2018-05-24T04:33:42.320Z,95.00
2018-05-24T04:36:17.565Z,95.10
2018-05-24T04:38:43.822Z,95.40
2018-05-24T04:41:10.018Z,95.30
2018-05-24T04:43:37.009Z,95.30
2018-05-24T04:46:03.304Z,94.90
2018-05-24T04:48:30.325Z,95.60
2018-05-24T04:50:56.594Z,95.50
2018-05-24T04:53:22.836Z,95.60
2018-05-24T04:55:49.838Z,95.90
2018-05-24T04:58:16.877Z,95.80
2018-05-24T05:00:43.849Z,95.30
2018-05-24T05:03:10.164Z,94.40
2018-05-24T05:05:36.424Z,94.50
2018-05-24T05:08:02.691Z,94.70
2018-05-24T05:10:29.674Z,95.20
2018-05-24T05:12:56.625Z,95.00
2018-05-24T05:15:22.885Z,95.00
2018-05-24T05:17:49.131Z,94.80
2018-05-24T05:20:15.379Z,94.70
2018-05-24T05:22:41.635Z,94.50
2018-05-24T05:25:07.979Z,94.70
2018-05-24T05:27:34.190Z,94.00
2018-05-24T05:30:00.443Z,94.00
2018-05-24T05:32:26.707Z,94.10
2018-05-24T05:34:52.983Z,93.90
2018-05-24T05:37:19.586Z,93.90
2018-05-24T05:39:46.197Z,93.80
2018-05-24T05:42:12.481Z,93.80
2018-05-24T05:44:38.704Z,93.00
2018-05-24T05:47:05.019Z,93.20
2018-05-24T05:49:31.996Z,93.30
2018-05-24T05:51:58.262Z,92.90
2018-05-24T05:54:24.524Z,92.90
2018-05-24T05:56:51.296Z,92.50
2018-05-24T05:59:18.317Z,92.80
2018-05-24T06:01:44.609Z,92.50
2018-05-24T06:04:10.878Z,93.00
2018-05-24T06:06:37.125Z,92.90
2018-05-24T06:09:03.459Z,93.30
2018-05-24T06:11:30.464Z,92.90
2018-05-24T06:13:56.770Z,92.70
2018-05-24T06:16:23.056Z,92.70
2018-05-24T06:18:49.377Z,92.40
2018-05-24T06:21:15.617Z,91.80
2018-05-24T06:23:41.890Z,92.20
2018-05-24T06:26:08.141Z,92.20
2018-05-24T06:28:34.513Z,92.50
2018-05-24T06:31:01.387Z,92.20
2018-05-24T06:33:27.695Z,92.00
2018-05-24T06:35:54.694Z,92.10
2018-05-24T06:38:20.956Z,92.10
2018-05-24T06:40:48.464Z,92.90
2018-05-24T06:43:15.504Z,93.20
2018-05-24T06:45:42.504Z,93.30
2018-05-24T06:48:08.754Z,93.10
2018-05-24T06:50:35.195Z,93.00
2018-05-24T06:53:01.460Z,93.00
2018-05-24T06:55:28.460Z,93.40
2018-05-24T06:57:55.071Z,92.90
2018-05-24T07:00:21.699Z,92.70
2018-05-24T07:02:48.639Z,93.50
2018-05-24T07:05:15.664Z,93.80
2018-05-24T07:07:41.936Z,93.50
2018-05-24T07:10:08.956Z,93.80
2018-05-24T07:12:35.940Z,94.10
2018-05-24T07:15:02.975Z,94.40
2018-05-24T07:17:29.284Z,94.00
2018-05-24T07:19:55.541Z,94.10
2018-05-24T07:22:21.844Z,93.90
2018-05-24T07:24:48.072Z,93.20
2018-05-24T07:27:14.311Z,93.20
2018-05-24T07:29:40.616Z,93.00
2018-05-24T07:32:07.620Z,93.20
2018-05-24T07:34:33.890Z,93.20
2018-05-24T07:37:00.173Z,93.20
2018-05-24T07:39:26.407Z,92.90
2018-05-24T07:41:52.669Z,93.30
2018-05-24T07:44:18.980Z,93.10
2018-05-24T07:46:45.207Z,93.30
2018-05-24T07:49:11.509Z,92.80
2018-05-24T07:51:37.716Z,93.10
2018-05-24T07:54:03.990Z,93.00
2018-05-24T07:56:30.951Z,93.50
2018-05-24T07:58:57.951Z,92.90
2018-05-24T08:01:24.182Z,92.60
2018-05-24T08:03:50.429Z,92.80
2018-05-24T08:06:16.669Z,93.10
2018-05-24T08:08:42.983Z,93.50
2018-05-24T08:11:09.929Z,92.50
2018-05-24T08:13:36.145Z,92.50
2018-05-24T08:16:02.667Z,92.30
2018-05-24T08:18:29.657Z,93.30
2018-05-24T08:20:55.911Z,92.50
2018-05-24T08:23:22.150Z,92.70
2018-05-24T08:25:48.485Z,92.00
2018-05-24T08:28:14.765Z,91.90
2018-05-24T08:30:41.741Z,92.10
2018-05-24T08:33:08.021Z,91.70
2018-05-24T08:35:34.287Z,91.40
2018-05-24T08:38:01.250Z,92.00
2018-05-24T08:40:28.245Z,91.30
2018-05-24T08:42:54.476Z,90.90
2018-05-24T08:45:20.743Z,91.10
2018-05-24T08:47:48.506Z,91.30
2018-05-24T08:50:14.781Z,90.00
2018-05-24T08:52:41.813Z,90.50
2018-05-24T08:55:08.088Z,89.60
2018-05-24T08:57:34.376Z,89.80
2018-05-24T09:00:02.097Z,89.80
2018-05-24T09:02:28.393Z,88.80
2018-05-24T09:04:54.673Z,88.90
2018-05-24T09:07:20.927Z,88.30
2018-05-24T09:09:47.187Z,89.40
2018-05-24T09:12:13.481Z,89.20
2018-05-24T09:14:39.731Z,88.60
2018-05-24T09:17:07.078Z,88.90
2018-05-24T09:19:33.656Z,88.80
2018-05-24T09:21:59.905Z,89.50
2018-05-24T09:24:26.193Z,85.90
2018-05-24T09:26:52.440Z,87.90
2018-05-24T09:29:18.796Z,88.00
2018-05-24T09:31:45.713Z,89.30
2018-05-24T09:34:11.981Z,85.60
2018-05-24T09:36:38.251Z,83.20
2018-05-24T09:39:05.271Z,83.80
2018-05-24T09:41:31.527Z,83.70
2018-05-24T09:43:57.752Z,84.00
2018-05-24T09:46:24.057Z,84.50
2018-05-24T09:48:50.306Z,84.60
2018-05-24T09:51:16.649Z,79.30
2018-05-24T09:53:42.881Z,79.30
2018-05-24T09:56:09.179Z,76.70
2018-05-24T09:58:35.436Z,74.80
2018-05-24T10:01:02.101Z,73.80
2018-05-24T10:03:28.338Z,73.90
2018-05-24T10:05:54.574Z,74.00
2018-05-24T10:08:20.870Z,74.70
2018-05-24T10:10:47.146Z,77.60
2018-05-24T10:13:13.426Z,74.00
2018-05-24T10:15:40.410Z,73.30
2018-05-24T10:18:07.062Z,72.60
2018-05-24T10:20:33.293Z,74.20
2018-05-24T10:22:59.584Z,74.00
2018-05-24T10:25:25.815Z,74.60
2018-05-24T10:27:52.081Z,76.20
2018-05-24T10:30:18.382Z,71.20
2018-05-24T10:32:44.711Z,70.40
2018-05-24T10:35:10.960Z,68.80
2018-05-24T10:37:37.177Z,64.60
2018-05-24T10:40:03.473Z,65.00
2018-05-24T10:42:29.722Z,64.30
2018-05-24T10:44:56.022Z,62.90
2018-05-24T10:47:23.012Z,66.20
2018-05-24T10:49:49.271Z,63.00
2018-05-24T10:52:15.610Z,65.80
2018-05-24T10:54:41.814Z,66.00
2018-05-24T10:57:08.101Z,66.60
2018-05-24T10:59:35.180Z,66.40
2018-05-24T11:02:01.393Z,65.30
2018-05-24T11:04:28.395Z,65.00
2018-05-24T11:06:55.363Z,66.50
2018-05-24T11:09:21.664Z,58.70
2018-05-24T11:11:48.012Z,58.40
2018-05-24T11:14:14.241Z,60.80
2018-05-24T11:16:40.508Z,58.60
2018-05-24T11:19:06.782Z,56.40
2018-05-24T11:21:33.806Z,54.70
2018-05-24T11:24:00.066Z,56.00
2018-05-24T11:26:27.052Z,55.30
2018-05-24T11:28:53.286Z,58.40
2018-05-24T11:31:19.532Z,56.70
2018-05-24T11:33:45.811Z,60.80
2018-05-24T11:36:12.095Z,58.60
2018-05-24T11:38:38.746Z,59.60
2018-05-24T11:41:04.992Z,57.50
2018-05-24T11:43:31.303Z,56.60
2018-05-24T11:45:57.506Z,58.00
2018-05-24T11:48:23.738Z,56.00
2018-05-24T11:50:49.997Z,57.30
2018-05-24T11:53:16.997Z,58.00
2018-05-24T11:55:43.260Z,55.50
2018-05-24T11:58:09.535Z,53.40
2018-05-24T12:00:35.761Z,53.70
2018-05-24T12:03:02.840Z,54.70
2018-05-24T12:05:29.056Z,51.20
2018-05-24T12:07:55.313Z,53.00
2018-05-24T12:10:21.716Z,53.50
2018-05-24T12:12:48.716Z,54.50
2018-05-24T12:15:15.033Z,54.30
2018-05-24T12:17:41.287Z,51.10
2018-05-24T12:20:07.542Z,51.80
2018-05-24T12:22:33.816Z,52.60
2018-05-24T12:25:00.807Z,52.60
2018-05-24T12:27:27.817Z,51.70
2018-05-24T12:29:54.441Z,51.50
2018-05-24T12:32:20.683Z,53.20
2018-05-24T12:34:46.997Z,55.00
2018-05-24T12:37:13.983Z,54.00
2018-05-24T12:39:40.242Z,54.50
2018-05-24T12:42:06.841Z,53.00
2018-05-24T12:44:33.110Z,55.40
2018-05-24T12:47:00.116Z,58.00
2018-05-24T12:49:26.396Z,56.80
2018-05-24T12:51:53.428Z,55.70
2018-05-24T12:54:19.677Z,56.10
2018-05-24T12:56:45.906Z,58.10
2018-05-24T12:59:12.176Z,61.50
2018-05-24T13:01:38.436Z,59.50
2018-05-24T13:04:04.705Z,58.00
2018-05-24T13:06:31.036Z,58.90
2018-05-24T13:08:58.037Z,58.40
2018-05-24T13:11:24.316Z,60.10
2018-05-24T13:13:51.361Z,60.20
2018-05-24T13:16:17.647Z,60.80
2018-05-24T13:18:44.717Z,67.70
2018-05-24T13:23:50.791Z,64.80
2018-05-24T13:26:17.772Z,66.80
2018-05-24T13:28:44.047Z,66.90
2018-05-24T13:31:10.333Z,66.40
2018-05-24T13:33:36.612Z,69.40
2018-05-24T13:36:02.932Z,71.20
2018-05-24T13:38:29.189Z,72.10
2018-05-24T13:40:55.449Z,70.80
2018-05-24T13:43:22.453Z,74.00
2018-05-24T13:45:48.717Z,71.70
2018-05-24T13:48:14.957Z,74.30
2018-05-24T13:50:41.258Z,72.80
2018-05-24T13:53:07.494Z,72.50
2018-05-24T13:55:33.788Z,74.40
2018-05-24T13:58:00.763Z,73.90
2018-05-24T14:00:30.023Z,76.90
2018-05-24T14:02:57.001Z,76.40
2018-05-24T14:05:24.087Z,80.10
2018-05-24T14:07:50.349Z,81.40
2018-05-24T14:10:16.626Z,83.70
2018-05-24T14:12:43.641Z,88.30
2018-05-24T14:15:09.913Z,90.20
2018-05-24T14:17:36.918Z,92.50
2018-05-24T14:20:03.173Z,91.90
2018-05-24T14:22:30.185Z,92.00
2018-05-24T14:24:56.484Z,92.40
2018-05-24T14:27:23.514Z,93.90
2018-05-24T14:29:50.180Z,93.40
2018-05-24T14:34:41.199Z,93.30
2018-05-24T14:37:07.529Z,94.00
2018-05-24T14:39:33.812Z,94.30
2018-05-24T14:42:00.846Z,94.90
2018-05-24T14:44:27.876Z,95.40
2018-05-24T14:46:54.543Z,95.30
2018-05-24T14:49:20.861Z,95.60
2018-05-24T14:51:47.132Z,95.80
2018-05-24T14:54:14.200Z,96.20
2018-05-24T14:56:40.430Z,96.90
2018-05-24T14:59:06.702Z,96.60
2018-05-24T15:01:32.955Z,96.50
2018-05-24T15:04:00.712Z,96.80
2018-05-24T15:06:26.993Z,96.30
2018-05-24T15:08:54.075Z,96.60
2018-05-24T15:11:20.705Z,96.20
2018-05-24T15:13:49.662Z,96.10
2018-05-24T15:16:15.975Z,96.30
2018-05-24T15:18:42.242Z,96.60
2018-05-24T15:21:08.511Z,96.60
2018-05-24T15:23:34.749Z,96.80
2018-05-24T15:26:01.025Z,96.90
2018-05-24T15:28:27.313Z,97.10
2018-05-24T15:30:54.343Z,97.50
2018-05-24T15:33:20.640Z,96.70
2018-05-24T15:35:46.903Z,96.90
2018-05-24T15:38:13.131Z,96.80
2018-05-24T15:40:40.166Z,96.80
2018-05-24T15:43:06.457Z,97.00
2018-05-24T15:45:33.451Z,96.10
2018-05-24T15:47:59.693Z,96.00
2018-05-24T15:50:25.958Z,95.00
2018-05-24T15:52:52.233Z,95.40
2018-05-24T15:55:18.517Z,95.00
2018-05-24T15:57:45.529Z,95.40
2018-05-24T16:00:11.812Z,95.20
2018-05-24T16:02:38.068Z,95.20
2018-05-24T16:05:04.396Z,95.60
2018-05-24T16:07:31.398Z,96.00
2018-05-24T16:09:57.669Z,95.50
2018-05-24T16:12:24.709Z,95.70
2018-05-24T16:14:50.947Z,95.70
2018-05-24T16:17:18.004Z,95.30
2018-05-24T16:19:44.238Z,94.80
2018-05-24T16:22:11.294Z,95.20
2018-05-24T16:24:38.308Z,95.30
2018-05-24T16:27:04.589Z,95.40
2018-05-24T16:29:30.877Z,95.70
2018-05-24T16:31:57.885Z,95.60
2018-05-24T16:34:24.163Z,95.80
2018-05-24T16:36:51.189Z,95.90
2018-05-24T16:39:17.544Z,95.80
2018-05-24T16:41:44.560Z,96.00
2018-05-24T16:44:10.819Z,95.70
2018-05-24T16:49:05.912Z,95.60
2018-05-24T16:51:32.876Z,96.10
2018-05-24T16:53:59.906Z,95.90
2018-05-24T16:56:26.154Z,95.80
2018-05-24T16:58:52.388Z,95.80
2018-05-24T17:01:18.685Z,95.90
2018-05-24T17:03:45.709Z,96.10
2018-05-24T17:06:11.974Z,95.90
2018-05-24T17:08:38.245Z,95.90
2018-05-24T17:11:04.593Z,95.90
2018-05-24T17:13:30.875Z,96.90
2018-05-24T17:15:57.855Z,96.00
2018-05-24T17:18:24.155Z,94.70
2018-05-24T17:20:51.680Z,94.00
2018-05-24T17:23:18.705Z,92.80
2018-05-24T17:25:44.995Z,92.70
2018-05-24T17:28:11.243Z,92.10
2018-05-24T17:30:37.559Z,92.10
2018-05-24T17:33:03.890Z,91.70
2018-05-24T17:35:30.900Z,91.80
2018-05-24T17:37:57.187Z,91.80
2018-05-24T17:40:23.425Z,91.50
2018-05-24T17:42:49.704Z,91.90
2018-05-24T17:45:16.728Z,91.80
2018-05-24T17:47:43.044Z,91.70
2018-05-24T17:50:09.344Z,92.00
2018-05-24T17:52:36.348Z,91.70
2018-05-24T17:55:02.724Z,92.20
2018-05-24T17:57:29.728Z,92.50
2018-05-24T17:59:56.775Z,92.90
2018-05-24T18:02:23.037Z,92.40
2018-05-24T18:04:49.298Z,92.80
2018-05-24T18:07:16.295Z,93.50
2018-05-24T18:09:42.544Z,93.40
2018-05-24T18:12:08.836Z,93.90
2018-05-24T18:14:35.484Z,94.10
2018-05-24T18:17:08.714Z,94.30
2018-05-24T18:19:35.523Z,94.60
2018-05-24T18:22:02.605Z,94.70
2018-05-24T18:24:28.875Z,95.00
2018-05-24T18:26:55.151Z,95.20
2018-05-24T18:29:21.593Z,95.50
2018-05-24T18:31:50.345Z,95.60
2018-05-24T18:34:18.908Z,95.70
2018-05-24T18:36:48.490Z,95.80
2018-05-24T18:39:15.781Z,95.80
2018-05-24T18:41:43.668Z,96.00
2018-05-24T18:44:10.705Z,96.70
2018-05-24T18:46:37.585Z,96.30
2018-05-24T18:49:05.061Z,96.60
2018-05-24T18:51:32.105Z,96.80
2018-05-24T18:53:58.341Z,96.70
2018-05-24T18:56:24.628Z,96.60
2018-05-24T18:58:51.291Z,96.60
2018-05-24T19:01:17.616Z,96.80
2018-05-24T19:03:44.684Z,96.70
2018-05-24T19:06:11.318Z,96.60
2018-05-24T19:08:37.571Z,96.40
2018-05-24T19:11:04.279Z,96.60
2018-05-24T19:13:30.935Z,96.60
2018-05-24T19:15:57.541Z,96.80
2018-05-24T19:18:24.564Z,96.60
2018-05-24T19:20:51.262Z,96.50
2018-05-24T19:23:17.555Z,96.60
2018-05-24T19:25:43.815Z,96.40
2018-05-24T19:28:10.869Z,96.70
2018-05-24T19:30:37.494Z,96.30
2018-05-24T19:33:04.558Z,96.30
2018-05-24T19:35:31.592Z,96.60
2018-05-24T19:37:57.892Z,96.50
2018-05-24T19:40:24.836Z,96.30
2018-05-24T19:42:51.621Z,96.40
2018-05-24T19:45:17.901Z,96.30
2018-05-24T19:47:44.979Z,96.00
2018-05-24T19:50:11.303Z,95.80
2018-05-24T19:52:38.295Z,96.20
2018-05-24T19:55:07.245Z,95.50
2018-05-24T19:57:33.506Z,94.60
2018-05-24T20:00:01.115Z,94.60
2018-05-24T20:02:27.426Z,95.10
2018-05-24T20:04:53.696Z,95.20
2018-05-24T20:07:19.949Z,94.90
2018-05-24T20:09:46.995Z,95.20
2018-05-24T20:12:14.039Z,95.40
2018-05-24T20:14:40.310Z,94.90
2018-05-24T20:17:06.605Z,94.90
2018-05-24T20:19:32.900Z,95.20
2018-05-24T20:21:59.131Z,95.40
2018-05-24T20:24:25.464Z,95.50
2018-05-24T20:26:52.149Z,95.70
2018-05-24T20:29:18.366Z,95.40
2018-05-24T20:31:44.651Z,95.90
2018-05-24T20:34:11.259Z,95.90
2018-05-24T20:36:37.531Z,95.80
2018-05-24T20:39:05.422Z,95.50
2018-05-24T20:41:32.264Z,95.40
2018-05-24T20:43:58.599Z,95.50
2018-05-24T20:46:24.921Z,95.50
2018-05-24T20:48:52.220Z,96.10
2018-05-24T20:51:19.060Z,95.70
2018-05-24T20:53:45.341Z,95.80
2018-05-24T20:56:13.129Z,96.20
2018-05-24T20:58:40.519Z,96.10
2018-05-24T21:01:06.819Z,96.00
2018-05-24T21:03:33.140Z,95.80
2018-05-24T21:05:59.418Z,95.80
2018-05-24T21:08:26.471Z,96.20
2018-05-24T21:10:54.139Z,96.20
2018-05-24T21:13:21.599Z,95.90
2018-05-24T21:15:48.250Z,96.00
2018-05-24T21:18:16.124Z,96.20
2018-05-24T21:20:43.096Z,96.30
2018-05-24T21:23:09.370Z,96.20
2018-05-24T21:25:36.494Z,95.90
2018-05-24T21:28:03.160Z,95.80
2018-05-24T21:30:30.598Z,95.80
2018-05-24T21:32:56.781Z,95.90
2018-05-24T21:35:23.074Z,96.00
2018-05-24T21:37:49.320Z,96.30
2018-05-24T21:40:17.424Z,96.60
2018-05-24T21:42:43.830Z,96.10
2018-05-24T21:45:10.125Z,96.10
2018-05-24T21:47:37.130Z,96.50
2018-05-24T21:50:03.444Z,96.50
2018-05-24T21:52:30.710Z,96.40
2018-05-24T21:54:57.365Z,96.70
2018-05-24T21:57:23.659Z,96.80
2018-05-24T21:59:50.705Z,96.60
2018-05-24T22:02:17.727Z,96.00
2018-05-24T22:04:44.727Z,96.00
2018-05-24T22:07:11.061Z,95.70
2018-05-24T22:09:38.079Z,95.60
2018-05-24T22:12:04.342Z,95.60
2018-05-24T22:14:31.331Z,96.00
2018-05-24T22:16:57.691Z,95.50
2018-05-24T22:19:23.959Z,95.30
2018-05-24T22:21:50.259Z,95.10
2018-05-24T22:24:16.534Z,95.10
2018-05-24T22:26:42.785Z,95.40
2018-05-24T22:29:09.815Z,95.60
2018-05-24T22:31:36.085Z,95.50
2018-05-24T22:34:02.335Z,95.70
2018-05-24T22:36:28.556Z,96.10
2018-05-24T22:38:54.831Z,96.30
2018-05-24T22:41:21.083Z,96.40
2018-05-24T22:43:47.331Z,96.20
2018-05-24T22:46:13.601Z,96.10
2018-05-24T22:48:39.876Z,95.90
2018-05-24T22:51:06.104Z,95.50
2018-05-24T22:53:32.375Z,95.40
2018-05-24T22:55:58.645Z,95.30
2018-05-24T22:58:25.272Z,95.20
2018-05-24T23:00:52.277Z,95.40
2018-05-24T23:03:18.523Z,95.10
2018-05-24T23:05:45.516Z,95.70
2018-05-24T23:08:12.554Z,95.70
2018-05-24T23:10:38.794Z,95.20
2018-05-24T23:13:05.784Z,95.70
2018-05-24T23:15:32.046Z,95.40
2018-05-24T23:17:58.312Z,95.70
2018-05-24T23:20:24.568Z,96.00
2018-05-24T23:22:51.567Z,96.30
2018-05-24T23:25:17.872Z,96.20
2018-05-24T23:27:44.087Z,96.10
2018-05-24T23:30:11.075Z,96.60
2018-05-24T23:32:37.322Z,96.40
2018-05-24T23:35:04.676Z,96.70
2018-05-24T23:37:30.912Z,96.70
2018-05-24T23:39:57.170Z,97.00
2018-05-24T23:42:24.201Z,96.90
2018-05-24T23:44:50.468Z,96.70
2018-05-24T23:47:16.722Z,96.80
2018-05-24T23:49:42.991Z,96.80
2018-05-24T23:52:09.269Z,96.70
2018-05-24T23:54:35.477Z,96.80
2018-05-24T23:57:01.727Z,96.70
2018-05-24T23:59:28.740Z,96.70
